Address 0xe620d5022cf81b150b2152f3374d83183780409a 6

Txn Hash Method
Block
From
To
Value [Txn Fee]
0xe26de4d2eec232ae5f73e65a5fbd2a2cd3f9fb6dd2a6dc40639325638c717151Synthesize268734832022-06-23 13:02:36105 days 2 hrs ago0xe620d5022cf81b150b2152f3374d83183780409aOUT 0x8ae130518198ccde131dfe81eec2aa11ecba2a1b0 MATIC0.00051095235 2.425
0xec828430711eceea3a2654dbe63d5ae57a633c5c083fd927cb6c7114d5e583fcSynthesize268728982022-06-23 12:03:02105 days 3 hrs ago0xe620d5022cf81b150b2152f3374d83183780409aOUT 0x8ae130518198ccde131dfe81eec2aa11ecba2a1b0 MATIC0.001941729512 9.215000012
0x77d0265b0ab98de9d800b928f6848cb13d69fd79b53c333019d497ede9bc7df3Synthesize With ...268728432022-06-23 11:58:26105 days 3 hrs ago0xe620d5022cf81b150b2152f3374d83183780409aOUT 0x8ae130518198ccde131dfe81eec2aa11ecba2a1b0 MATIC0.000591314431 2.425000027
0x88f9178fd69dbb4a3fea10940cedc4a52453f4d591b50843ce97546a0e60340aSynth Transfer R...267687602022-06-16 9:53:44112 days 5 hrs ago0xe620d5022cf81b150b2152f3374d83183780409aOUT 0x1576811b04af6df56682cb56e9f0233ff6f820ff0.000460285 MATIC0.007518791746 33.061259987
0xcedb132a6b1f78dcc75d236c7bd2d0645552fa2c94466905e42807b338275025Synth Transfer R...267685142022-06-16 9:33:11112 days 5 hrs ago0xe620d5022cf81b150b2152f3374d83183780409aOUT 0x1576811b04af6df56682cb56e9f0233ff6f820ff0.000460285 MATIC0.000551505627 2.425000013
0xd3dd32033ef85d1651eb7702b1f00dc4def459e52caf2cf8ddaf5cb7f013d58cUnsynthesize Req...267685062022-06-16 9:32:30112 days 5 hrs ago0xe620d5022cf81b150b2152f3374d83183780409aOUT 0x1576811b04af6df56682cb56e9f0233ff6f820ff0.0000002922815 MATIC0.000544659853 2.425000017
0xd3e001820040f094a5dbba6e2873d90183895f88867164e6e0ba8bd5105a9ed6Synth Transfer R...267415952022-06-14 13:33:35114 days 1 hr ago0xe620d5022cf81b150b2152f3374d83183780409aOUT 0x1576811b04af6df56682cb56e9f0233ff6f820ff0.000460285 MATIC0.000451296341 1.984522714
0x1e34dab616b8d56d25b3fd19288233c354cefdf94a26f7283c2f0d70f647e3e5Transfer267415872022-06-14 13:32:55114 days 1 hr ago0xe620d5022cf81b150b2152f3374d83183780409aOUT 0x9fb3a04c93860bee9cbd151c7eceb20624bdf7940 MATIC0.000077484001 1.500000033
0x2acce1b9e635b1f0c9847df409c439c927975c55744732a33a8150a82368776dUnsynthesize Req...267415722022-06-14 13:31:40114 days 1 hr ago0xe620d5022cf81b150b2152f3374d83183780409aOUT 0x1576811b04af6df56682cb56e9f0233ff6f820ff0.0000002922815 MATIC0.000336877513 1.500000061
0xdcf0054cb426fe63adee19c28f7e3fec4760c589d4721fd7072c537790ac46eeSynth Transfer R...266275432022-06-06 12:07:47122 days 2 hrs ago0xe620d5022cf81b150b2152f3374d83183780409aOUT 0x1576811b04af6df56682cb56e9f0233ff6f820ff0.000460285 MATIC0.000341137502 1.50000001
0x9f68de2b04faa21d6bbc4c0acc05fd7e3166929e317b50b6918a77afb9ec7fe0Synth Transfer R...266260752022-06-06 9:19:24122 days 5 hrs ago0xe620d5022cf81b150b2152f3374d83183780409aOUT 0x1576811b04af6df56682cb56e9f0233ff6f820ff0.000460285 MATIC0.000928575691 4.082997434
0x4fef139ff09ebe3d008d68879c9272e977f2b60e010049f92126043a016b12abUnsynthesize Req...266258952022-06-06 9:00:01122 days 6 hrs ago0xe620d5022cf81b150b2152f3374d83183780409aOUT 0x1576811b04af6df56682cb56e9f0233ff6f820ff0.0000002922815 MATIC0.000336877504 1.500000022
0x893534dec731d47bc996f6e9c83e9c419653952d6a3f561fb919a1ec191c7985Synth Transfer R...265847122022-06-03 13:31:22125 days 1 hr ago0xe620d5022cf81b150b2152f3374d83183780409aOUT 0x1576811b04af6df56682cb56e9f0233ff6f820ff0.000460285 MATIC0.00055153475 2.425000113
0xb6e51cc4d5d6c2c2002349bb7cbeb6a045bd1b76b5da987cd2ef0a78988fce69Unsynthesize Req...265846982022-06-03 13:29:46125 days 1 hr ago0xe620d5022cf81b150b2152f3374d83183780409aOUT 0x1576811b04af6df56682cb56e9f0233ff6f820ff0.0000002922815 MATIC0.000339110143 1.50986052
0x61506dfcc3430f7a3f65511c8e01a6d8ab5fe0ecfb725a7a4665898884cbd326Synth Transfer R...265845422022-06-03 13:11:49125 days 1 hr ago0xe620d5022cf81b150b2152f3374d83183780409aOUT 0x1576811b04af6df56682cb56e9f0233ff6f820ff0.000460285 MATIC0.000341130002 1.500000009
0x8993b826080cbacd540f88a6b09a32545f21c5556a69cbfe70730d336abae40bSynth Transfer R...265845262022-06-03 13:10:29125 days 1 hr ago0xe620d5022cf81b150b2152f3374d83183780409aOUT 0x1576811b04af6df56682cb56e9f0233ff6f820ff0.000460285 MATIC0.000341155502 1.500000013
0x1e81adf06396c8488b1302983aedb09eae7e6f75ca657fa2512dd5eb2bdeb19fSynth Transfer R...265845212022-06-03 13:10:04125 days 1 hr ago0xe620d5022cf81b150b2152f3374d83183780409aOUT 0x1576811b04af6df56682cb56e9f0233ff6f820ff0.000460285 MATIC0.000341130003 1.500000015
0x661b8658fd9b360c566716215cb94a4d06623806bd9a5391e6a06cb406db28eaUnsynthesize Req...265845172022-06-03 13:09:44125 days 1 hr ago0xe620d5022cf81b150b2152f3374d83183780409aOUT 0x1576811b04af6df56682cb56e9f0233ff6f820ff0.0000002922815 MATIC0.000350567729 1.560839752
0x8774eb46ce282e80dba76117a1d502a9de2a4be07d7de5c6dd4fa4614d20f771Synth Transfer R...265842222022-06-03 12:39:44125 days 2 hrs ago0xe620d5022cf81b150b2152f3374d83183780409aOUT 0x1576811b04af6df56682cb56e9f0233ff6f820ff0.000460285 MATIC0.007720908096 33.949996025
0x860a38a068b0b6597108ec197bd1d1faffeb926e4e2fb4be4acfe5d3b214127aSynth Transfer R...265842122022-06-03 12:38:54125 days 2 hrs ago0xe620d5022cf81b150b2152f3374d83183780409aOUT 0x1576811b04af6df56682cb56e9f0233ff6f820ff0.000460285 MATIC0.007721063793 33.949934235
0x99b7580f7a80d3e5ceaad5780e61017e0ae37e1e1feb9531e4a4a9924debb826Unsynthesize Req...265841682022-06-03 12:33:18125 days 2 hrs ago0xe620d5022cf81b150b2152f3374d83183780409aOUT 0x1576811b04af6df56682cb56e9f0233ff6f820ff0.0000002922815 MATIC0.00435718249 19.400003076
0x81222ec3778cb7770b38c3305e4cf1dd237596142c0b4001fe88ddee92f95492Synth Transfer R...265841392022-06-03 12:28:28125 days 2 hrs ago0xe620d5022cf81b150b2152f3374d83183780409aOUT 0x1576811b04af6df56682cb56e9f0233ff6f820ff0.000460285 MATIC0.004411948048 19.400000214
0xa66b5f83b16e0fed0d8a9de66d2cdfc995b7058b90d80f12a10c7ae086d4c947Unsynthesize Req...265840052022-06-03 12:16:16125 days 2 hrs ago0xe620d5022cf81b150b2152f3374d83183780409aOUT 0x1576811b04af6df56682cb56e9f0233ff6f820ff0.0000002922815 MATIC0.001425728714 6.348620333
0x8b242e5bea46e6020ff065c952879a7f626ead951f5393a54d215cb8dd45239bUnsynthesize Req...265839922022-06-03 12:14:35125 days 2 hrs ago0xe620d5022cf81b150b2152f3374d83183780409aOUT 0x1576811b04af6df56682cb56e9f0233ff6f820ff0.0000002922815 MATIC0.004540184892 20.214806488
0x76cd2c79659e5be5d78322ef37ff0d7f68d949d8e1fb75c2767de908206a3397Synth Transfer R...265839872022-06-03 12:13:45125 days 2 hrs ago0xe620d5022cf81b150b2152f3374d83183780409aOUT 0x1576811b04af6df56682cb56e9f0233ff6f820ff0.000460285 MATIC0.006617718476 29.100000775
[ Download CSV Export 
Parent Txn Hash Block From To Value
Loading

Contract Name:
0 MATIC

Compiler Version
0

Optimization Enabled:
0 MATIC

Other Settings:
-NA-
Block Transaction Gas Used Reward
Age Block Fee Address BC Fee Address Voting Power Jailed Incoming
Block Uncle Number Difficulty Gas Used Reward
Loading